Flight Track Log - Related Links

Times and Time Zones

All times are in EDT time to prevent confusion due to time zone crossing. See the GJS3706 flight status page for this flight to view local times or setup timezone preferences in your user account.

Time Position Orientation Groundspeed Altitude Reporting Facility
EDT Latitude Longitude Course Direction KTS MPH feet Rate Location/Type
Thu 07:00:51 AM 43.6853 -70.2092 255° West 231 266 3,300  Level Boston Center
Thu 07:01:51 AM 43.7400 -70.2389 339° North 275 316 5,200 2,500 Climbing Boston Center
Thu 07:02:51 AM 43.7608 -70.3444 285° West 239 275 8,300 2,800 Climbing Boston Center
Thu 07:03:51 AM 43.7606 -70.4481 270° West 259 298 10,800 2,000 Climbing Boston Center
Thu 07:04:51 AM 43.7522 -70.5661 264° West 303 349 12,300 1,700 Climbing Boston Center
Thu 07:05:00 AM 43.7115 -70.8305 243° Southwest  Level FlightAware Approximate
Thu 07:05:51 AM 43.7417 -70.6958 264° West 334 384 14,200  Level Boston Center
Thu 07:06:00 AM 43.6655 -70.9559 255° West  Level FlightAware Approximate
Thu 07:06:51 AM 43.7292 -70.8283 263° West 351 404 16,600  Level Boston Center
Thu 07:07:51 AM 43.7183 -70.9664 264° West 357 411 18,100 1,682 Climbing Boston Center
Thu 07:09:03 AM 43.7017 -71.1392 262° West 371 427 20,300 1,727 Climbing Boston Center
Thu 07:10:03 AM 43.6908 -71.2917 264° West 382 440 21,900 1,500 Climbing Boston Center
Thu 07:11:03 AM 43.6797 -71.4239 263° West 393 452 23,300 1,350 Climbing Boston Center
Thu 07:12:03 AM 43.6664 -71.5819 263° West 401 461 24,600 1,300 Climbing Boston Center
Thu 07:13:03 AM 43.6528 -71.7400 263° West 413 475 25,900 1,300 Climbing Boston Center
Thu 07:14:03 AM 43.6369 -71.9036 262° West 423 487 27,200 1,200 Climbing Boston Center
Thu 07:15:03 AM 43.6231 -72.0644 263° West 428 493 28,300 1,150 Climbing Boston Center
Thu 07:16:03 AM 43.6089 -72.2308 263° West 428 493 29,500 1,200 Climbing Boston Center
Thu 07:17:03 AM 43.5925 -72.3972 262° West 433 498 30,700 1,200 Climbing Boston Center
Thu 07:18:03 AM 43.5778 -72.5547 263° West 433 498 31,900 1,350 Climbing Boston Center
Thu 07:19:03 AM 43.5631 -72.7208 263° West 433 498 33,400 1,200 Climbing Boston Center
Thu 07:20:03 AM 43.5458 -72.8783 261° West 428 493 34,300 800 Climbing Boston Center
Thu 07:21:03 AM 43.5242 -73.0528 260° West 428 493 35,000 650 Climbing Boston Center
Thu 07:22:03 AM 43.5064 -73.2186 262° West 428 493 35,600 650 Climbing Boston Center
Thu 07:23:03 AM 43.4906 -73.3817 262° West 428 493 36,300 750 Climbing Boston Center
Thu 07:24:03 AM 43.4725 -73.5472 262° West 433 498 37,100 650 Climbing Boston Center
Thu 07:25:03 AM 43.4542 -73.7100 261° West 433 498 37,600 450 Climbing Boston Center
Thu 07:26:03 AM 43.4400 -73.8411 262° West 433 498 38,000 200 Climbing Boston Center
Thu 07:27:03 AM 43.4186 -74.0436 262° West 443 510 38,000  Level Boston Center
Thu 07:28:03 AM 43.4019 -74.1947 261° West 448 516 38,000  Level Boston Center
Thu 07:29:03 AM 43.3822 -74.3714 261° West 455 524 38,000  Level Boston Center
Thu 07:30:03 AM 43.3647 -74.5450 262° West 460 529 38,000  Level Boston Center
Thu 07:31:03 AM 43.3447 -74.7156 261° West 466 536 38,000  Level Boston Center
Thu 07:32:03 AM 43.3244 -74.8861 261° West 461 531 38,000  Level Boston Center
Thu 07:33:03 AM 43.3042 -75.0564 261° West 461 531 38,000  Level Boston Center
Thu 07:34:03 AM 43.2811 -75.2322 260° West 467 537 38,000  Level Boston Center
Thu 07:35:03 AM 43.2597 -75.4194 261° West 461 531 38,000  Level Boston Center
Thu 07:36:03 AM 43.2406 -75.5897 261° West 461 531 38,000 -50 Level Boston Center
Thu 07:37:03 AM 43.2192 -75.7597 260° West 466 536 37,900  Descending Boston Center
Thu 07:38:03 AM 43.1972 -75.9322 260° West 466 536 38,000 30 Climbing Boston Center
Thu 07:40:22 AM 43.1608 -76.3078 263° West 456 525 38,000  Level Cleveland Center
Thu 07:41:22 AM 43.1608 -76.4844 270° West 456 525 38,000  Level Cleveland Center
Thu 07:42:22 AM 43.1606 -76.6581 270° West 462 532 38,000  Level Cleveland Center
Thu 07:43:22 AM 43.1586 -76.8489 269° West 462 532 38,000  Level Cleveland Center
Thu 07:44:22 AM 43.1578 -77.0169 270° West 462 532 38,000  Level Cleveland Center
Thu 07:45:22 AM 43.1586 -77.1878 270° West 462 532 38,000  Level Cleveland Center
Thu 07:46:22 AM 43.1550 -77.3558 268° West 457 526 38,000  Level Cleveland Center
Thu 07:47:22 AM 43.1533 -77.5211 269° West 446 513 38,000  Level Cleveland Center
Thu 07:48:22 AM 43.1536 -77.6889 270° West 446 513 38,000  Level Cleveland Center
Thu 07:49:22 AM 43.1492 -77.8514 268° West 440 506 38,000  Level Cleveland Center
Thu 07:50:22 AM 43.1467 -78.0194 269° West 440 506 38,000  Level Cleveland Center
Thu 07:51:22 AM 43.1461 -78.1844 270° West 440 506 38,000  Level Cleveland Center
Thu 07:52:22 AM 43.1431 -78.3497 269° West 440 506 38,000  Level Cleveland Center
Thu 07:53:22 AM 43.1378 -78.5119 268° West 440 506 38,000  Level Cleveland Center
Thu 07:54:22 AM 43.1361 -78.6600 269° West 440 506 38,000  Level Cleveland Center
Thu 07:55:22 AM 43.1303 -78.8194 267° West 435 501 38,000  Level Cleveland Center
Thu 07:56:22 AM 43.1264 -78.9817 268° West 435 501 38,000  Level Cleveland Center
Thu 07:57:22 AM 43.1203 -79.1411 267° West 430 495 38,000  Level Cleveland Center
Thu 07:58:32 AM 43.1000 -79.3167 261° West 430 495 38,000  Level Toronto Center
Thu 07:59:32 AM 43.1000 -79.5000 270° West 450 518 38,000  Level Toronto Center
Thu 08:00:32 AM 43.0833 -79.6833 263° West 450 518 38,000  Level Toronto Center
Thu 08:01:31 AM 43.0833 -79.8333 270° West 450 518 38,000  Level Toronto Center
Thu 08:02:31 AM 43.0833 -80.0000 270° West 450 518 38,000  Level Toronto Center
Thu 08:03:31 AM 43.0667 -80.1833 263° West 450 518 38,000  Level Toronto Center
Thu 08:04:31 AM 43.0667 -80.3333 270° West 450 518 38,000  Level Toronto Center
Thu 08:05:32 AM 43.0667 -80.5167 270° West 450 518 38,000  Level Toronto Center
Thu 08:06:31 AM 43.0500 -80.7000 263° West 450 518 38,000  Level Toronto Center
Thu 08:07:31 AM 43.0333 -80.8667 262° West 440 506 38,000  Level Toronto Center
Thu 08:08:31 AM 43.0167 -81.0167 261° West 440 506 38,000  Level Toronto Center
Thu 08:09:31 AM 43.0167 -81.1833 270° West 430 495 38,000  Level Toronto Center
Thu 08:10:32 AM 43.0167 -81.3500 270° West 430 495 38,000  Level Toronto Center
Thu 08:11:31 AM 43.0167 -81.5333 270° West 430 495 38,000  Level Toronto Center
Thu 08:12:31 AM 43.0167 -81.6833 270° West 430 495 38,000  Level Toronto Center
Thu 08:13:31 AM 43.0167 -81.8500 270° West 430 495 38,000  Level Toronto Center
Thu 08:14:31 AM 43.0000 -82.0000 261° West 430 495 38,000  Level Toronto Center
Thu 08:15:32 AM 43.0000 -82.1667 270° West 430 495 38,000  Level Toronto Center
Thu 08:16:32 AM 43.0000 -82.3167 270° West 430 495 38,000  Level Toronto Center
Thu 08:17:31 AM 43.0000 -82.4833 270° West 430 495 38,000 -275 Level Toronto Center
Thu 08:18:21 AM 43.0067 -82.6386 273° West 437 503 37,500 -818 Descending Cleveland Center
Thu 08:19:21 AM 43.0017 -82.8003 268° West 437 503 36,500 -1,000 Descending Cleveland Center
Thu 08:20:21 AM 42.9964 -82.9592 267° West 437 503 35,500 -1,000 Descending Cleveland Center
Thu 08:21:21 AM 42.9911 -83.1064 267° West 437 503 34,500 -1,000 Descending Cleveland Center
Thu 08:22:21 AM 42.9850 -83.2794 267° West 448 516 33,500 -1,000 Descending Cleveland Center
Thu 08:23:21 AM 42.9792 -83.4411 267° West 442 509 32,500 -750 Descending Cleveland Center
Thu 08:24:21 AM 42.9728 -83.6053 267° West 431 496 32,000 -250 Descending Cleveland Center
Thu 08:25:21 AM 42.9556 -83.7803 262° West 437 503 32,000  Level Cleveland Center
Thu 08:26:21 AM 42.9469 -83.9417 266° West 437 503 32,000  Level Cleveland Center
Thu 08:27:21 AM 42.9342 -84.0883 263° West 439 505 32,000  Level Cleveland Center
Thu 08:28:21 AM 42.9167 -84.2492 262° West 439 505 32,000  Level Cleveland Center
Thu 08:29:56 AM 42.8939 -84.4897 263° West 431 496 32,000  Level Chicago Center
Thu 08:30:58 AM 42.8742 -84.6825 262° West 430 495 32,000  Level Chicago Center
Thu 08:32:00 AM 42.8575 -84.8411 262° West 425 489 32,000  Level Chicago Center
Thu 08:33:02 AM 42.8406 -84.9992 262° West 422 486 32,000  Level Chicago Center
Thu 08:34:04 AM 42.8239 -85.1572 262° West 424 488 32,000  Level Chicago Center
Thu 08:35:06 AM 42.8061 -85.3158 261° West 424 488 32,000 -484 Level Chicago Center
Thu 08:36:08 AM 42.7892 -85.4758 262° West 424 488 31,000 -1,548 Descending Chicago Center
Thu 08:37:10 AM 42.7625 -85.6358 257° West 432 497 28,800 -2,371 Descending Chicago Center
Thu 08:38:12 AM 42.7278 -85.8264 256° West 430 495 26,100 -2,352 Descending Chicago Center
Thu 08:39:15 AM 42.7003 -85.9792 256° West 416 479 23,900 -2,112 Descending Chicago Center
Thu 08:40:17 AM 42.6717 -86.1269 255° West 404 465 21,700 -1,935 Descending Chicago Center
Thu 08:41:19 AM 42.6469 -86.2697 257° West 392 451 19,900 -1,597 Descending Chicago Center
Thu 08:42:21 AM 42.6206 -86.4042 255° West 372 428 18,400 -1,452 Descending Chicago Center
Thu 08:43:23 AM 42.5933 -86.5408 255° West 375 432 16,900 -1,500 Descending Chicago Center
Thu 08:44:25 AM 42.5678 -86.6767 256° West 373 429 15,300 -1,694 Descending Chicago Center
Thu 08:45:27 AM 42.5322 -86.8333 253° West 363 418 13,400 -1,694 Descending Chicago Center
Thu 08:46:29 AM 42.4997 -86.9539 250° West 346 398 11,800 -1,597 Descending Chicago Center
Thu 08:47:31 AM 42.4656 -87.0731 249° West 339 390 10,100 -919 Descending Chicago Center
Thu 08:48:33 AM 42.4361 -87.1881 251° West 322 371 9,900 -528 Descending Chicago Center
Thu 08:49:36 AM 42.4078 -87.2836 248° West 280 322 9,000 -629 Descending Chicago Center
Thu 08:50:37 AM 42.3483 -87.3281 209° Southwest 279 321 8,600 -732 Descending Chicago Center
Thu 08:51:39 AM 42.2625 -87.3347 183° South 278 320 7,500 -774 Descending Chicago Center
Thu 08:52:41 AM 42.1864 -87.3233 174° South 275 316 7,000 -242 Descending Chicago Center
Thu 08:53:43 AM 42.1186 -87.3111 172° South 247 284 7,000  Level Chicago Center
Thu 08:54:45 AM 42.0442 -87.2883 167° South 233 268 7,000  Level Chicago Center
Thu 08:55:47 AM 42.0014 -87.3350 219° Southwest 236 272 7,000  Level Chicago Center
Thu 08:56:18 AM 41.9833 -87.3833 243° Southwest 230 265 7,000 -198 Level Chicago TRACON
Thu 08:57:18 AM 41.9833 -87.4667 270° West 233 268 6,700 -800 Descending Chicago TRACON
Thu 08:58:18 AM 41.9833 -87.5500 270° West 229 264 5,400 -1,200 Descending Chicago TRACON
Thu 08:59:18 AM 41.9833 -87.6333 270° West 227 261 4,300 -1,150 Descending Chicago TRACON
Thu 09:00:18 AM 41.9833 -87.7167 270° West 212 244 3,100 -1,100 Descending Chicago TRACON
Thu 09:01:18 AM 41.9833 -87.7833 270° West 189 217 2,100 -900 Descending Chicago TRACON
Thu 09:02:18 AM 41.9833 -87.8500 270° West 135 155 1,300 -476 Descending Chicago TRACON
Thu 09:04:02 AM 41.9839 -87.9186 271° West 148 170 800 -288 Descending Chicago Center

Login

Don't have an account? Register now (free) for customized features, flight alerts, and more!